Jamesville, North Carolina
Current Conditions -  °F | °C
As of 5:15 PM on Monday 20 Oct 2014 (Local Time) from KOCW Reporting Station
Clear Clear  
Wind Chill: 69°   Ceiling: Unl
Heat Index: 69°   Visibility: 10mi
Dew Point: 49°   Wind: 6mph
Humidity: 49%   Direction: 170°S
Pressure: 30.01"   Gusts: NA
Location:  35.81°N, 76.9°W
Report Text: KOCW 202115Z AUTO 17005KT 10SM CLR 21/10 A3001 RMK AO2 T02080096
Loading
Personal Weather Stations






























Interactive Weather Map
Tropical Storm Tracking
New forecast layout! Learn more

10-Day Weather Forecast

Advertisements
Track Severe Weather on mobile